sensor_id;sensor_type;location;lat;lon;timestamp;temperature;humidity
23717;DHT22;22094;52.130;5.598;2023-05-29T00:02:06;10.60;99.90
23717;DHT22;22094;52.130;5.598;2023-05-29T00:04:32;10.60;99.90
23717;DHT22;22094;52.130;5.598;2023-05-29T00:06:57;10.60;99.90
23717;DHT22;22094;52.130;5.598;2023-05-29T00:09:23;10.50;99.90
23717;DHT22;22094;52.130;5.598;2023-05-29T00:11:48;10.50;99.90
23717;DHT22;22094;52.130;5.598;2023-05-29T00:14:18;10.50;99.90
23717;DHT22;22094;52.130;5.598;2023-05-29T00:16:45;10.50;99.90
23717;DHT22;22094;52.130;5.598;2023-05-29T00:19:12;10.50;99.90
23717;DHT22;22094;52.130;5.598;2023-05-29T00:21:39;10.40;99.90
23717;DHT22;22094;52.130;5.598;2023-05-29T00:24:05;10.40;99.90
23717;DHT22;22094;52.130;5.598;2023-05-29T00:26:30;10.30;99.90
23717;DHT22;22094;52.130;5.598;2023-05-29T00:28:56;10.30;99.90
23717;DHT22;22094;52.130;5.598;2023-05-29T00:31:21;10.20;99.90
23717;DHT22;22094;52.130;5.598;2023-05-29T00:33:47;10.20;99.90
23717;DHT22;22094;52.130;5.598;2023-05-29T00:36:13;10.20;99.90
23717;DHT22;22094;52.130;5.598;2023-05-29T00:38:38;10.20;99.90
23717;DHT22;22094;52.130;5.598;2023-05-29T00:41:04;10.20;99.90
23717;DHT22;22094;52.130;5.598;2023-05-29T00:43:30;10.10;99.90
23717;DHT22;22094;52.130;5.598;2023-05-29T00:45:55;10.10;99.90
23717;DHT22;22094;52.130;5.598;2023-05-29T00:48:21;10.00;99.90
23717;DHT22;22094;52.130;5.598;2023-05-29T00:50:47;10.00;99.90
23717;DHT22;22094;52.130;5.598;2023-05-29T00:53:13;9.90;99.90
23717;DHT22;22094;52.130;5.598;2023-05-29T00:55:39;9.90;99.90
23717;DHT22;22094;52.130;5.598;2023-05-29T00:58:05;9.90;99.90
23717;DHT22;22094;52.130;5.598;2023-05-29T01:00:31;9.90;99.90
23717;DHT22;22094;52.130;5.598;2023-05-29T01:02:58;10.20;99.90
23717;DHT22;22094;52.130;5.598;2023-05-29T01:05:24;9.80;99.90
23717;DHT22;22094;52.130;5.598;2023-05-29T01:07:49;9.80;99.90
23717;DHT22;22094;52.130;5.598;2023-05-29T01:10:16;9.80;99.90
23717;DHT22;22094;52.130;5.598;2023-05-29T01:12:47;9.70;99.90
23717;DHT22;22094;52.130;5.598;2023-05-29T01:15:26;9.70;99.90
23717;DHT22;22094;52.130;5.598;2023-05-29T01:18:00;9.60;99.90
23717;DHT22;22094;52.130;5.598;2023-05-29T01:20:48;9.60;99.90
23717;DHT22;22094;52.130;5.598;2023-05-29T01:23:35;9.60;99.90
23717;DHT22;22094;52.130;5.598;2023-05-29T01:28:48;9.60;99.90
23717;DHT22;22094;52.130;5.598;2023-05-29T01:31:22;9.50;99.90
23717;DHT22;22094;52.130;5.598;2023-05-29T01:33:55;9.50;99.90
23717;DHT22;22094;52.130;5.598;2023-05-29T01:36:22;9.50;99.90
23717;DHT22;22094;52.130;5.598;2023-05-29T01:38:48;9.40;99.90
23717;DHT22;22094;52.130;5.598;2023-05-29T01:41:15;9.40;99.90
23717;DHT22;22094;52.130;5.598;2023-05-29T01:43:45;9.40;99.90
23717;DHT22;22094;52.130;5.598;2023-05-29T01:46:15;9.40;99.90
23717;DHT22;22094;52.130;5.598;2023-05-29T01:48:41;9.30;99.90
23717;DHT22;22094;52.130;5.598;2023-05-29T01:51:08;9.30;99.90
23717;DHT22;22094;52.130;5.598;2023-05-29T01:53:34;9.20;99.90
23717;DHT22;22094;52.130;5.598;2023-05-29T01:56:00;9.20;99.90
23717;DHT22;22094;52.130;5.598;2023-05-29T01:58:27;9.20;99.90
23717;DHT22;22094;52.130;5.598;2023-05-29T02:00:54;9.30;99.90
23717;DHT22;22094;52.130;5.598;2023-05-29T02:03:20;9.20;99.90
23717;DHT22;22094;52.130;5.598;2023-05-29T02:05:46;9.20;99.90
23717;DHT22;22094;52.130;5.598;2023-05-29T02:08:12;9.20;99.90
23717;DHT22;22094;52.130;5.598;2023-05-29T02:10:37;9.20;99.90
23717;DHT22;22094;52.130;5.598;2023-05-29T02:13:03;9.10;99.90
23717;DHT22;22094;52.130;5.598;2023-05-29T02:15:28;9.20;99.90
23717;DHT22;22094;52.130;5.598;2023-05-29T02:17:54;9.10;99.90
23717;DHT22;22094;52.130;5.598;2023-05-29T02:20:19;9.10;99.90
23717;DHT22;22094;52.130;5.598;2023-05-29T02:22:45;9.10;99.90
23717;DHT22;22094;52.130;5.598;2023-05-29T02:25:11;9.10;99.90
23717;DHT22;22094;52.130;5.598;2023-05-29T02:27:36;9.00;99.90
23717;DHT22;22094;52.130;5.598;2023-05-29T02:30:02;9.00;99.90
23717;DHT22;22094;52.130;5.598;2023-05-29T02:32:28;9.00;99.90
23717;DHT22;22094;52.130;5.598;2023-05-29T02:34:54;8.90;99.90
23717;DHT22;22094;52.130;5.598;2023-05-29T02:37:20;8.90;99.90
23717;DHT22;22094;52.130;5.598;2023-05-29T02:39:45;8.90;99.90
23717;DHT22;22094;52.130;5.598;2023-05-29T02:42:11;8.90;99.90
23717;DHT22;22094;52.130;5.598;2023-05-29T02:44:36;8.90;99.90
23717;DHT22;22094;52.130;5.598;2023-05-29T02:47:02;8.90;99.90
23717;DHT22;22094;52.130;5.598;2023-05-29T02:49:28;8.90;99.90
23717;DHT22;22094;52.130;5.598;2023-05-29T02:51:53;8.80;99.90
23717;DHT22;22094;52.130;5.598;2023-05-29T02:54:23;8.80;99.90
23717;DHT22;22094;52.130;5.598;2023-05-29T02:56:49;8.80;99.90
23717;DHT22;22094;52.130;5.598;2023-05-29T02:59:15;8.80;99.90
23717;DHT22;22094;52.130;5.598;2023-05-29T03:01:41;8.80;99.90
23717;DHT22;22094;52.130;5.598;2023-05-29T03:04:10;8.80;99.90
23717;DHT22;22094;52.130;5.598;2023-05-29T03:06:36;8.80;99.90
23717;DHT22;22094;52.130;5.598;2023-05-29T03:09:03;8.70;99.90
23717;DHT22;22094;52.130;5.598;2023-05-29T03:11:30;8.70;99.90
23717;DHT22;22094;52.130;5.598;2023-05-29T03:13:56;8.70;99.90
23717;DHT22;22094;52.130;5.598;2023-05-29T03:16:21;8.70;99.90
23717;DHT22;22094;52.130;5.598;2023-05-29T03:18:47;8.70;99.90
23717;DHT22;22094;52.130;5.598;2023-05-29T03:21:13;8.70;99.90
23717;DHT22;22094;52.130;5.598;2023-05-29T03:23:38;8.70;99.90
23717;DHT22;22094;52.130;5.598;2023-05-29T03:26:04;8.60;99.90
23717;DHT22;22094;52.130;5.598;2023-05-29T03:28:31;8.70;99.90
23717;DHT22;22094;52.130;5.598;2023-05-29T03:30:57;8.60;99.90
23717;DHT22;22094;52.130;5.598;2023-05-29T03:33:22;8.60;99.90
23717;DHT22;22094;52.130;5.598;2023-05-29T03:35:48;8.60;99.90
23717;DHT22;22094;52.130;5.598;2023-05-29T03:38:13;8.60;99.90
23717;DHT22;22094;52.130;5.598;2023-05-29T03:40:39;8.60;99.90
23717;DHT22;22094;52.130;5.598;2023-05-29T03:43:04;8.50;99.90
23717;DHT22;22094;52.130;5.598;2023-05-29T03:45:30;8.50;99.90
23717;DHT22;22094;52.130;5.598;2023-05-29T03:47:55;8.50;99.90
23717;DHT22;22094;52.130;5.598;2023-05-29T03:50:21;8.60;99.90
23717;DHT22;22094;52.130;5.598;2023-05-29T03:52:46;8.50;99.90
23717;DHT22;22094;52.130;5.598;2023-05-29T03:55:12;8.60;99.90
23717;DHT22;22094;52.130;5.598;2023-05-29T03:57:39;8.60;99.90
23717;DHT22;22094;52.130;5.598;2023-05-29T04:00:07;8.60;99.90
23717;DHT22;22094;52.130;5.598;2023-05-29T04:02:36;8.60;99.90
23717;DHT22;22094;52.130;5.598;2023-05-29T04:05:03;8.70;99.90
23717;DHT22;22094;52.130;5.598;2023-05-29T04:07:28;8.80;99.90
23717;DHT22;22094;52.130;5.598;2023-05-29T04:09:54;8.70;99.90
23717;DHT22;22094;52.130;5.598;2023-05-29T04:12:20;8.70;99.90
23717;DHT22;22094;52.130;5.598;2023-05-29T04:14:45;12.40;99.90
23717;DHT22;22094;52.130;5.598;2023-05-29T04:17:11;8.80;99.90
23717;DHT22;22094;52.130;5.598;2023-05-29T04:19:36;8.90;99.90
23717;DHT22;22094;52.130;5.598;2023-05-29T04:22:02;8.90;99.90
23717;DHT22;22094;52.130;5.598;2023-05-29T04:24:27;9.00;99.90
23717;DHT22;22094;52.130;5.598;2023-05-29T04:26:53;9.20;99.90
23717;DHT22;22094;52.130;5.598;2023-05-29T04:29:18;9.20;99.90
23717;DHT22;22094;52.130;5.598;2023-05-29T04:31:44;9.20;99.90
23717;DHT22;22094;52.130;5.598;2023-05-29T04:34:10;11.60;99.90
23717;DHT22;22094;52.130;5.598;2023-05-29T04:36:36;11.20;99.90
23717;DHT22;22094;52.130;5.598;2023-05-29T04:39:05;9.30;99.90
23717;DHT22;22094;52.130;5.598;2023-05-29T04:41:32;9.70;99.90
23717;DHT22;22094;52.130;5.598;2023-05-29T04:43:57;11.70;99.90
23717;DHT22;22094;52.130;5.598;2023-05-29T04:46:24;9.70;99.90
23717;DHT22;22094;52.130;5.598;2023-05-29T04:51:22;10.00;99.90
23717;DHT22;22094;52.130;5.598;2023-05-29T04:53:49;10.20;99.90
23717;DHT22;22094;52.130;5.598;2023-05-29T04:56:17;10.10;99.90
23717;DHT22;22094;52.130;5.598;2023-05-29T04:58:43;10.10;99.90
23717;DHT22;22094;52.130;5.598;2023-05-29T05:06:05;13.10;99.90
23717;DHT22;22094;52.130;5.598;2023-05-29T05:08:33;10.70;99.90
23717;DHT22;22094;52.130;5.598;2023-05-29T05:11:02;11.00;99.90
23717;DHT22;22094;52.130;5.598;2023-05-29T05:13:28;13.20;99.90
23717;DHT22;22094;52.130;5.598;2023-05-29T05:18:20;12.60;99.90
23717;DHT22;22094;52.130;5.598;2023-05-29T05:25:38;11.60;99.90
23717;DHT22;22094;52.130;5.598;2023-05-29T05:28:04;11.20;99.90
23717;DHT22;22094;52.130;5.598;2023-05-29T05:30:30;11.00;99.90
23717;DHT22;22094;52.130;5.598;2023-05-29T05:32:57;12.60;99.90
23717;DHT22;22094;52.130;5.598;2023-05-29T05:35:22;11.50;99.90
23717;DHT22;22094;52.130;5.598;2023-05-29T05:37:48;11.50;99.90
23717;DHT22;22094;52.130;5.598;2023-05-29T05:40:13;10.10;99.90
23717;DHT22;22094;52.130;5.598;2023-05-29T05:42:39;11.00;99.90
23717;DHT22;22094;52.130;5.598;2023-05-29T05:45:05;11.20;99.90
23717;DHT22;22094;52.130;5.598;2023-05-29T05:47:32;12.00;99.90
23717;DHT22;22094;52.130;5.598;2023-05-29T05:52:24;9.20;99.90
23717;DHT22;22094;52.130;5.598;2023-05-29T05:59:43;11.80;99.90
23717;DHT22;22094;52.130;5.598;2023-05-29T06:02:08;11.20;99.90
23717;DHT22;22094;52.130;5.598;2023-05-29T06:04:34;10.50;99.90
23717;DHT22;22094;52.130;5.598;2023-05-29T06:11:53;14.70;99.90
23717;DHT22;22094;52.130;5.598;2023-05-29T06:14:18;15.10;99.90
23717;DHT22;22094;52.130;5.598;2023-05-29T06:16:44;13.60;99.90
23717;DHT22;22094;52.130;5.598;2023-05-29T06:21:35;12.70;99.90
23717;DHT22;22094;52.130;5.598;2023-05-29T06:24:01;13.70;99.90
23717;DHT22;22094;52.130;5.598;2023-05-29T06:26:26;11.00;99.90
23717;DHT22;22094;52.130;5.598;2023-05-29T06:28:52;10.60;99.90
23717;DHT22;22094;52.130;5.598;2023-05-29T06:33:44;15.30;99.90
23717;DHT22;22094;52.130;5.598;2023-05-29T06:36:10;13.30;99.90
23717;DHT22;22094;52.130;5.598;2023-05-29T06:38:36;15.60;99.90
23717;DHT22;22094;52.130;5.598;2023-05-29T06:43:28;13.50;99.90
23717;DHT22;22094;52.130;5.598;2023-05-29T06:50:47;13.20;99.90
23717;DHT22;22094;52.130;5.598;2023-05-29T06:53:13;12.80;99.90
23717;DHT22;22094;52.130;5.598;2023-05-29T06:58:06;13.60;99.90
23717;DHT22;22094;52.130;5.598;2023-05-29T07:02:58;13.30;99.90
23717;DHT22;22094;52.130;5.598;2023-05-29T07:05:23;13.90;99.90
23717;DHT22;22094;52.130;5.598;2023-05-29T07:07:49;11.50;99.90
23717;DHT22;22094;52.130;5.598;2023-05-29T07:10:14;11.70;99.90
23717;DHT22;22094;52.130;5.598;2023-05-29T07:12:40;14.10;99.90
23717;DHT22;22094;52.130;5.598;2023-05-29T07:19:58;14.90;99.90
23717;DHT22;22094;52.130;5.598;2023-05-29T07:22:23;16.00;99.90
23717;DHT22;22094;52.130;5.598;2023-05-29T07:24:49;13.20;99.90
23717;DHT22;22094;52.130;5.598;2023-05-29T07:27:15;15.80;99.90
23717;DHT22;22094;52.130;5.598;2023-05-29T07:29:40;14.80;99.90
23717;DHT22;22094;52.130;5.598;2023-05-29T07:32:06;13.90;99.90
23717;DHT22;22094;52.130;5.598;2023-05-29T07:37:00;16.60;99.90
23717;DHT22;22094;52.130;5.598;2023-05-29T07:41:53;16.10;99.90
23717;DHT22;22094;52.130;5.598;2023-05-29T07:46:45;14.10;99.90
23717;DHT22;22094;52.130;5.598;2023-05-29T07:51:36;15.90;99.90
23717;DHT22;22094;52.130;5.598;2023-05-29T08:03:47;15.90;99.90
23717;DHT22;22094;52.130;5.598;2023-05-29T08:08:38;16.60;99.90
23717;DHT22;22094;52.130;5.598;2023-05-29T08:11:04;15.40;99.90
23717;DHT22;22094;52.130;5.598;2023-05-29T08:13:30;15.90;99.90
23717;DHT22;22094;52.130;5.598;2023-05-29T08:15:56;14.40;99.90
23717;DHT22;22094;52.130;5.598;2023-05-29T08:18:25;17.40;99.90
23717;DHT22;22094;52.130;5.598;2023-05-29T08:20:51;16.50;99.90
23717;DHT22;22094;52.130;5.598;2023-05-29T08:23:18;17.40;99.90
23717;DHT22;22094;52.130;5.598;2023-05-29T08:30:36;15.60;99.90
23717;DHT22;22094;52.130;5.598;2023-05-29T08:33:02;18.30;99.90
23717;DHT22;22094;52.130;5.598;2023-05-29T08:35:28;15.70;99.90
23717;DHT22;22094;52.130;5.598;2023-05-29T08:40:20;16.30;99.90
23717;DHT22;22094;52.130;5.598;2023-05-29T08:42:58;16.90;99.90
23717;DHT22;22094;52.130;5.598;2023-05-29T08:45:25;17.00;99.90
23717;DHT22;22094;52.130;5.598;2023-05-29T08:47:52;17.00;99.90
23717;DHT22;22094;52.130;5.598;2023-05-29T08:50:19;17.90;99.90
23717;DHT22;22094;52.130;5.598;2023-05-29T08:52:46;17.70;99.90
23717;DHT22;22094;52.130;5.598;2023-05-29T08:55:12;17.50;99.90
23717;DHT22;22094;52.130;5.598;2023-05-29T08:57:37;16.20;99.90
23717;DHT22;22094;52.130;5.598;2023-05-29T09:00:05;19.00;99.90
23717;DHT22;22094;52.130;5.598;2023-05-29T09:02:41;17.80;99.90
23717;DHT22;22094;52.130;5.598;2023-05-29T09:07:34;16.70;99.90
23717;DHT22;22094;52.130;5.598;2023-05-29T09:09:59;17.00;99.90
23717;DHT22;22094;52.130;5.598;2023-05-29T09:12:26;19.40;99.90
23717;DHT22;22094;52.130;5.598;2023-05-29T09:19:44;15.30;99.90
23717;DHT22;22094;52.130;5.598;2023-05-29T09:22:14;19.60;99.90
23717;DHT22;22094;52.130;5.598;2023-05-29T09:24:41;17.90;99.90
23717;DHT22;22094;52.130;5.598;2023-05-29T09:27:08;16.10;99.90
23717;DHT22;22094;52.130;5.598;2023-05-29T09:29:41;17.80;99.90
23717;DHT22;22094;52.130;5.598;2023-05-29T09:32:08;17.80;99.90
23717;DHT22;22094;52.130;5.598;2023-05-29T09:37:05;18.80;99.90
23717;DHT22;22094;52.130;5.598;2023-05-29T09:39:54;17.90;99.90
23717;DHT22;22094;52.130;5.598;2023-05-29T09:44:50;17.70;99.90
23717;DHT22;22094;52.130;5.598;2023-05-29T09:47:17;17.80;99.90
23717;DHT22;22094;52.130;5.598;2023-05-29T09:49:44;18.50;99.90
23717;DHT22;22094;52.130;5.598;2023-05-29T09:52:12;18.10;99.90
23717;DHT22;22094;52.130;5.598;2023-05-29T09:57:12;18.50;99.90
23717;DHT22;22094;52.130;5.598;2023-05-29T10:04:36;16.20;99.90
23717;DHT22;22094;52.130;5.598;2023-05-29T10:07:12;18.20;99.90
23717;DHT22;22094;52.130;5.598;2023-05-29T10:09:43;18.20;99.90
23717;DHT22;22094;52.130;5.598;2023-05-29T10:12:11;15.90;99.90
23717;DHT22;22094;52.130;5.598;2023-05-29T10:14:37;18.90;99.90
23717;DHT22;22094;52.130;5.598;2023-05-29T10:17:07;18.70;99.90
23717;DHT22;22094;52.130;5.598;2023-05-29T10:19:36;18.80;99.90
23717;DHT22;22094;52.130;5.598;2023-05-29T10:22:04;18.70;99.90
23717;DHT22;22094;52.130;5.598;2023-05-29T10:24:31;18.20;99.90
23717;DHT22;22094;52.130;5.598;2023-05-29T10:26:58;19.20;99.90
23717;DHT22;22094;52.130;5.598;2023-05-29T10:29:59;18.10;99.90
23717;DHT22;22094;52.130;5.598;2023-05-29T10:32:32;18.30;99.90
23717;DHT22;22094;52.130;5.598;2023-05-29T10:35:22;18.90;99.90
23717;DHT22;22094;52.130;5.598;2023-05-29T10:38:11;18.90;99.90
23717;DHT22;22094;52.130;5.598;2023-05-29T10:40:37;19.60;99.90
23717;DHT22;22094;52.130;5.598;2023-05-29T10:43:03;17.90;99.90
23717;DHT22;22094;52.130;5.598;2023-05-29T10:50:46;19.50;99.90
23717;DHT22;22094;52.130;5.598;2023-05-29T10:53:17;18.90;99.90
23717;DHT22;22094;52.130;5.598;2023-05-29T10:55:45;18.20;99.90
23717;DHT22;22094;52.130;5.598;2023-05-29T10:58:18;21.30;99.90
23717;DHT22;22094;52.130;5.598;2023-05-29T11:00:45;20.30;99.50
23717;DHT22;22094;52.130;5.598;2023-05-29T11:03:20;20.10;99.60
23717;DHT22;22094;52.130;5.598;2023-05-29T11:06:20;19.80;99.00
23717;DHT22;22094;52.130;5.598;2023-05-29T11:08:47;19.60;99.80
23717;DHT22;22094;52.130;5.598;2023-05-29T11:13:56;19.90;98.30
23717;DHT22;22094;52.130;5.598;2023-05-29T11:18:57;20.00;96.90
23717;DHT22;22094;52.130;5.598;2023-05-29T11:21:30;20.00;96.20
23717;DHT22;22094;52.130;5.598;2023-05-29T11:23:58;18.90;96.60
23717;DHT22;22094;52.130;5.598;2023-05-29T11:26:27;19.80;95.70
23717;DHT22;22094;52.130;5.598;2023-05-29T11:31:20;20.30;96.00
23717;DHT22;22094;52.130;5.598;2023-05-29T11:36:18;21.20;95.00
23717;DHT22;22094;52.130;5.598;2023-05-29T11:46:18;21.40;93.50
23717;DHT22;22094;52.130;5.598;2023-05-29T11:56:09;21.80;90.40
23717;DHT22;22094;52.130;5.598;2023-05-29T11:58:38;21.50;89.50
23717;DHT22;22094;52.130;5.598;2023-05-29T12:03:42;21.50;90.20
23717;DHT22;22094;52.130;5.598;2023-05-29T12:06:09;22.10;90.70
23717;DHT22;22094;52.130;5.598;2023-05-29T12:08:36;22.90;91.80
23717;DHT22;22094;52.130;5.598;2023-05-29T12:20:48;20.20;93.40
23717;DHT22;22094;52.130;5.598;2023-05-29T12:28:08;20.70;93.30
23717;DHT22;22094;52.130;5.598;2023-05-29T12:30:38;19.70;92.40
23717;DHT22;22094;52.130;5.598;2023-05-29T12:35:34;22.40;93.00
23717;DHT22;22094;52.130;5.598;2023-05-29T12:40:30;20.90;92.80
23717;DHT22;22094;52.130;5.598;2023-05-29T12:43:01;20.90;92.30
23717;DHT22;22094;52.130;5.598;2023-05-29T12:45:32;20.90;92.20
23717;DHT22;22094;52.130;5.598;2023-05-29T12:48:02;21.20;91.90
23717;DHT22;22094;52.130;5.598;2023-05-29T12:53:03;20.40;91.00
23717;DHT22;22094;52.130;5.598;2023-05-29T12:55:31;21.40;91.00
23717;DHT22;22094;52.130;5.598;2023-05-29T13:02:51;21.20;92.10
23717;DHT22;22094;52.130;5.598;2023-05-29T13:05:17;22.80;91.50
23717;DHT22;22094;52.130;5.598;2023-05-29T13:07:46;21.90;90.90
23717;DHT22;22094;52.130;5.598;2023-05-29T13:12:39;22.20;90.40
23717;DHT22;22094;52.130;5.598;2023-05-29T13:15:05;21.10;90.60
23717;DHT22;22094;52.130;5.598;2023-05-29T13:24:49;20.30;90.90
23717;DHT22;22094;52.130;5.598;2023-05-29T13:29:42;21.50;90.40
23717;DHT22;22094;52.130;5.598;2023-05-29T13:32:08;22.00;90.30
23717;DHT22;22094;52.130;5.598;2023-05-29T13:39:28;22.10;89.60
23717;DHT22;22094;52.130;5.598;2023-05-29T13:46:46;20.90;87.20
23717;DHT22;22094;52.130;5.598;2023-05-29T13:54:04;22.30;89.20
23717;DHT22;22094;52.130;5.598;2023-05-29T13:58:57;22.30;85.70
23717;DHT22;22094;52.130;5.598;2023-05-29T14:01:24;20.90;85.20
23717;DHT22;22094;52.130;5.598;2023-05-29T14:03:50;22.80;84.40
23717;DHT22;22094;52.130;5.598;2023-05-29T14:15:59;23.60;84.00
23717;DHT22;22094;52.130;5.598;2023-05-29T14:18:25;24.60;84.30
23717;DHT22;22094;52.130;5.598;2023-05-29T14:23:17;23.50;81.50
23717;DHT22;22094;52.130;5.598;2023-05-29T14:25:43;23.70;82.50
23717;DHT22;22094;52.130;5.598;2023-05-29T14:30:35;25.20;80.40
23717;DHT22;22094;52.130;5.598;2023-05-29T14:35:27;26.70;80.20
23717;DHT22;22094;52.130;5.598;2023-05-29T14:42:45;25.10;77.90
23717;DHT22;22094;52.130;5.598;2023-05-29T14:50:02;27.10;77.60
23717;DHT22;22094;52.130;5.598;2023-05-29T14:52:28;26.40;77.00
23717;DHT22;22094;52.130;5.598;2023-05-29T14:54:53;26.90;76.60
23717;DHT22;22094;52.130;5.598;2023-05-29T15:02:11;25.10;74.30
23717;DHT22;22094;52.130;5.598;2023-05-29T15:04:37;23.90;74.00
23717;DHT22;22094;52.130;5.598;2023-05-29T15:07:02;22.10;73.20
23717;DHT22;22094;52.130;5.598;2023-05-29T15:11:55;24.50;73.80
23717;DHT22;22094;52.130;5.598;2023-05-29T15:14:21;24.40;73.80
23717;DHT22;22094;52.130;5.598;2023-05-29T15:16:46;24.30;74.50
23717;DHT22;22094;52.130;5.598;2023-05-29T15:21:38;26.20;75.40
23717;DHT22;22094;52.130;5.598;2023-05-29T15:28:56;27.20;74.80
23717;DHT22;22094;52.130;5.598;2023-05-29T15:31:21;26.00;74.10
23717;DHT22;22094;52.130;5.598;2023-05-29T15:38:44;24.70;73.40
23717;DHT22;22094;52.130;5.598;2023-05-29T15:41:10;27.20;73.60
23717;DHT22;22094;52.130;5.598;2023-05-29T15:43:35;23.90;70.90
23717;DHT22;22094;52.130;5.598;2023-05-29T15:48:27;25.50;71.60
23717;DHT22;22094;52.130;5.598;2023-05-29T15:55:44;25.10;70.50
23717;DHT22;22094;52.130;5.598;2023-05-29T15:58:10;24.50;69.70
23717;DHT22;22094;52.130;5.598;2023-05-29T16:03:02;25.50;69.50
23717;DHT22;22094;52.130;5.598;2023-05-29T16:07:54;25.40;66.40
23717;DHT22;22094;52.130;5.598;2023-05-29T16:10:20;26.20;68.20
23717;DHT22;22094;52.130;5.598;2023-05-29T16:12:46;24.70;66.70
23717;DHT22;22094;52.130;5.598;2023-05-29T16:15:16;24.70;66.40
23717;DHT22;22094;52.130;5.598;2023-05-29T16:17:42;22.90;65.00
23717;DHT22;22094;52.130;5.598;2023-05-29T16:20:08;24.70;65.40
23717;DHT22;22094;52.130;5.598;2023-05-29T16:39:39;24.10;65.70
23717;DHT22;22094;52.130;5.598;2023-05-29T16:42:05;25.20;65.90
23717;DHT22;22094;52.130;5.598;2023-05-29T16:44:31;24.10;65.40
23717;DHT22;22094;52.130;5.598;2023-05-29T16:46:57;25.10;65.30
23717;DHT22;22094;52.130;5.598;2023-05-29T16:49:22;26.00;66.90
23717;DHT22;22094;52.130;5.598;2023-05-29T16:51:49;24.30;66.00
23717;DHT22;22094;52.130;5.598;2023-05-29T16:54:14;25.10;67.50
23717;DHT22;22094;52.130;5.598;2023-05-29T16:56:40;24.30;66.40
23717;DHT22;22094;52.130;5.598;2023-05-29T16:59:06;23.10;65.70
23717;DHT22;22094;52.130;5.598;2023-05-29T17:08:49;24.50;67.60
23717;DHT22;22094;52.130;5.598;2023-05-29T17:13:41;23.90;66.30
23717;DHT22;22094;52.130;5.598;2023-05-29T17:25:50;24.40;69.90
23717;DHT22;22094;52.130;5.598;2023-05-29T17:28:17;22.70;68.60
23717;DHT22;22094;52.130;5.598;2023-05-29T17:35:35;21.90;70.00
23717;DHT22;22094;52.130;5.598;2023-05-29T17:38:00;21.40;71.50
23717;DHT22;22094;52.130;5.598;2023-05-29T17:40:27;21.30;71.40
23717;DHT22;22094;52.130;5.598;2023-05-29T17:42:52;21.10;72.10
23717;DHT22;22094;52.130;5.598;2023-05-29T17:45:18;21.20;72.80
23717;DHT22;22094;52.130;5.598;2023-05-29T17:47:44;20.80;72.40
23717;DHT22;22094;52.130;5.598;2023-05-29T17:50:10;20.70;73.20
23717;DHT22;22094;52.130;5.598;2023-05-29T17:55:02;21.00;72.80
23717;DHT22;22094;52.130;5.598;2023-05-29T18:02:20;20.80;74.50
23717;DHT22;22094;52.130;5.598;2023-05-29T18:04:45;20.30;74.30
23717;DHT22;22094;52.130;5.598;2023-05-29T18:07:15;20.90;74.70
23717;DHT22;22094;52.130;5.598;2023-05-29T18:09:43;20.20;73.80
23717;DHT22;22094;52.130;5.598;2023-05-29T18:12:10;22.00;74.80
23717;DHT22;22094;52.130;5.598;2023-05-29T18:17:01;20.00;74.20
23717;DHT22;22094;52.130;5.598;2023-05-29T18:21:53;20.50;75.40
23717;DHT22;22094;52.130;5.598;2023-05-29T18:26:45;19.40;75.40
23717;DHT22;22094;52.130;5.598;2023-05-29T18:29:11;19.40;75.50
23717;DHT22;22094;52.130;5.598;2023-05-29T18:31:37;19.10;75.10
23717;DHT22;22094;52.130;5.598;2023-05-29T18:34:03;19.20;74.90
23717;DHT22;22094;52.130;5.598;2023-05-29T18:36:30;19.40;75.50
23717;DHT22;22094;52.130;5.598;2023-05-29T18:38:56;19.80;76.30
23717;DHT22;22094;52.130;5.598;2023-05-29T18:41:22;18.90;76.30
23717;DHT22;22094;52.130;5.598;2023-05-29T18:46:14;18.50;78.70
23717;DHT22;22094;52.130;5.598;2023-05-29T18:48:40;18.20;78.30
23717;DHT22;22094;52.130;5.598;2023-05-29T18:51:06;16.90;80.60
23717;DHT22;22094;52.130;5.598;2023-05-29T18:53:32;16.40;82.70
23717;DHT22;22094;52.130;5.598;2023-05-29T18:55:58;16.20;84.20
23717;DHT22;22094;52.130;5.598;2023-05-29T18:58:23;15.90;84.50
23717;DHT22;22094;52.130;5.598;2023-05-29T19:00:49;17.10;86.30
23717;DHT22;22094;52.130;5.598;2023-05-29T19:05:41;15.70;85.90
23717;DHT22;22094;52.130;5.598;2023-05-29T19:08:08;15.60;86.90
23717;DHT22;22094;52.130;5.598;2023-05-29T19:10:35;15.40;87.70
23717;DHT22;22094;52.130;5.598;2023-05-29T19:13:03;15.30;88.80
23717;DHT22;22094;52.130;5.598;2023-05-29T19:15:28;15.20;89.40
23717;DHT22;22094;52.130;5.598;2023-05-29T19:17:54;15.00;90.30
23717;DHT22;22094;52.130;5.598;2023-05-29T19:20:19;14.90;90.50
23717;DHT22;22094;52.130;5.598;2023-05-29T19:22:49;14.80;90.80
23717;DHT22;22094;52.130;5.598;2023-05-29T19:25:16;14.70;91.30
23717;DHT22;22094;52.130;5.598;2023-05-29T19:27:42;14.60;91.60
23717;DHT22;22094;52.130;5.598;2023-05-29T19:30:08;14.50;92.20
23717;DHT22;22094;52.130;5.598;2023-05-29T19:32:34;14.50;92.30
23717;DHT22;22094;52.130;5.598;2023-05-29T19:35:00;14.40;92.50
23717;DHT22;22094;52.130;5.598;2023-05-29T19:37:28;14.30;92.90
23717;DHT22;22094;52.130;5.598;2023-05-29T19:39:54;14.10;92.50
23717;DHT22;22094;52.130;5.598;2023-05-29T19:42:21;14.10;92.60
23717;DHT22;22094;52.130;5.598;2023-05-29T19:44:49;14.00;93.00
23717;DHT22;22094;52.130;5.598;2023-05-29T19:47:15;14.00;93.00
23717;DHT22;22094;52.130;5.598;2023-05-29T19:49:40;13.90;93.10
23717;DHT22;22094;52.130;5.598;2023-05-29T19:52:08;13.70;93.40
23717;DHT22;22094;52.130;5.598;2023-05-29T19:54:35;13.60;93.60
23717;DHT22;22094;52.130;5.598;2023-05-29T19:57:04;13.60;94.10
23717;DHT22;22094;52.130;5.598;2023-05-29T19:59:31;13.50;94.50
23717;DHT22;22094;52.130;5.598;2023-05-29T20:01:56;13.40;94.90
23717;DHT22;22094;52.130;5.598;2023-05-29T20:04:23;13.40;95.30
23717;DHT22;22094;52.130;5.598;2023-05-29T20:06:48;13.30;95.70
23717;DHT22;22094;52.130;5.598;2023-05-29T20:09:14;13.10;96.20
23717;DHT22;22094;52.130;5.598;2023-05-29T20:11:40;13.10;96.90
23717;DHT22;22094;52.130;5.598;2023-05-29T20:14:06;13.00;97.50
23717;DHT22;22094;52.130;5.598;2023-05-29T20:16:32;13.00;98.20
23717;DHT22;22094;52.130;5.598;2023-05-29T20:18:58;12.90;99.00
23717;DHT22;22094;52.130;5.598;2023-05-29T20:21:24;12.80;99.90
23717;DHT22;22094;52.130;5.598;2023-05-29T20:23:50;12.80;99.90
23717;DHT22;22094;52.130;5.598;2023-05-29T20:26:15;12.70;99.90
23717;DHT22;22094;52.130;5.598;2023-05-29T20:28:41;12.70;99.90
23717;DHT22;22094;52.130;5.598;2023-05-29T20:31:07;12.60;99.90
23717;DHT22;22094;52.130;5.598;2023-05-29T20:33:32;12.50;99.90
23717;DHT22;22094;52.130;5.598;2023-05-29T20:35:58;12.50;99.90
23717;DHT22;22094;52.130;5.598;2023-05-29T20:38:24;12.60;99.90
23717;DHT22;22094;52.130;5.598;2023-05-29T20:40:49;12.40;99.90
23717;DHT22;22094;52.130;5.598;2023-05-29T20:43:18;12.30;99.90